Time;durP1;ratioP1;P1;durP2;ratioP2;P2;SDS_P1;SDS_P2;PMS_P1;PMS_P2;Temp;Humidity;BMP_temperature;BMP_pressure;BME280_temperature;BME280_humidity;BME280_pressure;Samples;Min_cycle;Max_cycle;Signal;HPM_P1;HPM_P2
2022/01/23 00:00:45;;;;;;;;;;;;;;;;;;5081117;28;19955;-75
2022/01/23 00:03:18;;;;;;;;;;;;;;;;;;5087420;28;19947;-76
2022/01/23 00:05:45;;;;;;;;;;;;;;;;;;5080773;28;19987;-76
2022/01/23 00:08:13;;;;;;;;;;;;;;;;;;5082357;28;19951;-76
2022/01/23 00:10:39;;;;;;;;;;;;;;;;;;5085741;28;20332;-76
2022/01/23 00:13:29;;;;;;;;;;;;;;;;;;5085653;28;20571;-76
2022/01/23 00:18:40;;;;;;;;;;;;;;;;;;5082111;28;19963;-75
2022/01/23 00:21:06;;;;;;;;;;;;;;;;;;5079542;28;21236;-76
2022/01/23 00:31:51;;;;;;;;;;;;;;;;;;5083479;28;19955;-75
2022/01/23 00:34:19;;;;;;;;;;;;;;;;;;5086402;28;19963;-75
2022/01/23 00:36:45;;;;;;;;;;;;;;;;;;5085361;28;19992;-76
2022/01/23 00:39:11;;;;;;;;;;;;;;;;;;5066516;28;19958;-75
2022/01/23 00:41:37;;;;;;;;;;;;;;;;;;5086373;28;20017;-75
2022/01/23 00:44:04;;;;;;;;;;;;;;;;;;5083159;28;20385;-75
2022/01/23 00:46:38;;;;;;;;;;;;;;;;;;5087732;28;19962;-76
2022/01/23 00:51:33;;;;;;;;;;;;;;;;;;5083454;28;19943;-76
2022/01/23 00:54:00;;;;;;;;;;;;;;;;;;5082022;28;19998;-76
2022/01/23 00:56:26;;;;;;;;;;;;;;;;;;5083903;28;20339;-77
2022/01/23 00:58:52;;;;;;;;;;;;;;;;;;5064913;28;19948;-77
2022/01/23 01:01:18;;;;;;;;;;;;;;;;;;5067826;28;19966;-76
2022/01/23 01:03:44;;;;;;;;;;;;;;;;;;5064918;28;19952;-82
2022/01/23 01:06:11;;;;;;;;;;;;;;;;;;5052337;28;20000;-78
2022/01/23 01:08:37;;;;;;;;;;;;;;;;;;5078701;28;19968;-79
2022/01/23 01:33:08;;;;;;;;;;;;;;;;;;5019660;28;20026;-80
2022/01/23 01:35:40;;;;;;;;;;;;;;;;;;5059512;28;20009;-80
2022/01/23 01:38:07;;;;;;;;;;;;;;;;;;5078500;28;19916;-79
2022/01/23 01:40:33;;;;;;;;;;;;;;;;;;5085877;28;19971;-79
2022/01/23 01:42:59;;;;;;;;;;;;;;;;;;5083434;28;20025;-79
2022/01/23 01:45:25;;;;;;;;;;;;;;;;;;5085618;28;19947;-78
2022/01/23 01:47:51;;;;;;;;;;;;;;;;;;5081355;28;19952;-78
2022/01/23 01:50:17;;;;;;;;;;;;;;;;;;5085153;28;19998;-79
2022/01/23 01:52:44;;;;;;;;;;;;;;;;;;5057983;28;19968;-79
2022/01/23 01:55:13;;;;;;;;;;;;;;;;;;5081195;28;20386;-78
2022/01/23 01:57:44;;;;;;;;;;;;;;;;;;5085194;28;20018;-78
2022/01/23 02:08:24;;;;;;;;;;;;;;;;;;5069078;28;19968;-78
2022/01/23 02:10:54;;;;;;;;;;;;;;;;;;5083500;28;19963;-79
2022/01/23 02:13:27;;;;;;;;;;;;;;;;;;5086730;28;19956;-79
2022/01/23 02:51:01;;;;;;;;;;;;;;;;;;5087865;28;19964;-79
2022/01/23 02:56:19;;;;;;;;;;;;;;;;;;5084108;28;19916;-78
2022/01/23 02:58:57;;;;;;;;;;;;;;;;;;5064035;28;20328;-78
2022/01/23 03:01:27;;;;;;;;;;;;;;;;;;5087080;28;19985;-78
2022/01/23 03:04:00;;;;;;;;;;;;;;;;;;5086172;28;20448;-78
2022/01/23 03:06:53;;;;;;;;;;;;;;;;;;5081837;28;20001;-78
2022/01/23 03:30:37;;;;;;;;;;;;;;;;;;5081451;28;19959;-78
2022/01/23 03:33:03;;;;;;;;;;;;;;;;;;5082772;28;19963;-78
2022/01/23 03:35:29;;;;;;;;;;;;;;;;;;5084557;28;19951;-78
2022/01/23 03:37:56;;;;;;;;;;;;;;;;;;5086925;28;19989;-78
2022/01/23 03:40:22;;;;;;;;;;;;;;;;;;5087005;28;19956;-78
2022/01/23 03:42:56;;;;;;;;;;;;;;;;;;5086338;28;19959;-77
2022/01/23 03:45:53;;;;;;;;;;;;;;;;;;5087486;28;20340;-78
2022/01/23 03:50:40;;;;;;;;;;;;;;;;;;5079258;28;20021;-78
2022/01/23 03:53:06;;;;;;;;;;;;;;;;;;5084850;28;20314;-78
2022/01/23 03:55:33;;;;;;;;;;;;;;;;;;5086621;28;19955;-79
2022/01/23 03:57:59;;;;;;;;;;;;;;;;;;5068130;28;19955;-78
2022/01/23 04:00:28;;;;;;;;;;;;;;;;;;5086647;28;19959;-78
2022/01/23 04:02:54;;;;;;;;;;;;;;;;;;5084304;28;19955;-78
2022/01/23 04:05:20;;;;;;;;;;;;;;;;;;5088925;28;19959;-78
2022/01/23 04:07:47;;;;;;;;;;;;;;;;;;5069500;28;20003;-79
2022/01/23 04:10:15;;;;;;;;;;;;;;;;;;5085253;28;19924;-78
2022/01/23 04:20:44;;;;;;;;;;;;;;;;;;5082668;28;19924;-79
2022/01/23 04:34:23;;;;;;;;;;;;;;;;;;5081808;28;24249;-79
2022/01/23 05:02:01;;;;;;;;;;;;;;;;;;5066831;28;19955;-80
2022/01/23 05:04:33;;;;;;;;;;;;;;;;;;5083040;28;20461;-78
2022/01/23 05:07:02;;;;;;;;;;;;;;;;;;5088655;28;20474;-79
2022/01/23 05:09:28;;;;;;;;;;;;;;;;;;5085615;28;19972;-79
2022/01/23 05:11:54;;;;;;;;;;;;;;;;;;5084552;28;19951;-79
2022/01/23 05:14:27;;;;;;;;;;;;;;;;;;5059147;28;19960;-79
2022/01/23 05:16:54;;;;;;;;;;;;;;;;;;5078707;28;19963;-79
2022/01/23 05:19:20;;;;;;;;;;;;;;;;;;5066737;28;20395;-79
2022/01/23 05:24:13;;;;;;;;;;;;;;;;;;5085580;28;19959;-79
2022/01/23 05:26:44;;;;;;;;;;;;;;;;;;5085784;28;19964;-79
2022/01/23 05:29:10;;;;;;;;;;;;;;;;;;5076372;28;20021;-79
2022/01/23 05:31:37;;;;;;;;;;;;;;;;;;5085239;28;20016;-80
2022/01/23 05:34:03;;;;;;;;;;;;;;;;;;5084414;28;19964;-80
2022/01/23 05:36:29;;;;;;;;;;;;;;;;;;5086207;28;19996;-79
2022/01/23 05:38:55;;;;;;;;;;;;;;;;;;5066946;28;19951;-79
2022/01/23 05:41:21;;;;;;;;;;;;;;;;;;5082775;28;19959;-79
2022/01/23 05:43:48;;;;;;;;;;;;;;;;;;5079668;28;19955;-78
2022/01/23 05:46:14;;;;;;;;;;;;;;;;;;5083200;28;19947;-80
2022/01/23 05:48:40;;;;;;;;;;;;;;;;;;5082982;28;20021;-80
2022/01/23 05:51:11;;;;;;;;;;;;;;;;;;5082913;28;19967;-79
2022/01/23 05:53:38;;;;;;;;;;;;;;;;;;5086599;28;19967;-78
2022/01/23 05:56:04;;;;;;;;;;;;;;;;;;5079058;28;19956;-79
2022/01/23 05:58:30;;;;;;;;;;;;;;;;;;5084917;28;19960;-79
2022/01/23 06:00:56;;;;;;;;;;;;;;;;;;5063439;28;20393;-81
2022/01/23 06:03:22;;;;;;;;;;;;;;;;;;5082865;28;19920;-78
2022/01/23 06:05:49;;;;;;;;;;;;;;;;;;5082794;28;19970;-78
2022/01/23 06:08:15;;;;;;;;;;;;;;;;;;5085787;28;20383;-78
2022/01/23 06:10:56;;;;;;;;;;;;;;;;;;5081824;28;19956;-78
2022/01/23 06:13:22;;;;;;;;;;;;;;;;;;5061802;28;21384;-78
2022/01/23 06:15:48;;;;;;;;;;;;;;;;;;5083160;28;19959;-78
2022/01/23 06:18:14;;;;;;;;;;;;;;;;;;5081520;28;19928;-78
2022/01/23 06:20:40;;;;;;;;;;;;;;;;;;5084671;28;19971;-78
2022/01/23 06:23:07;;;;;;;;;;;;;;;;;;5067054;28;19952;-78
2022/01/23 06:25:35;;;;;;;;;;;;;;;;;;5083887;28;19960;-78
2022/01/23 06:28:01;;;;;;;;;;;;;;;;;;5083264;28;19955;-78
2022/01/23 06:30:27;;;;;;;;;;;;;;;;;;5083392;28;19956;-78
2022/01/23 06:32:53;;;;;;;;;;;;;;;;;;5081814;28;19935;-77
2022/01/23 06:35:19;;;;;;;;;;;;;;;;;;5081822;28;19966;-78
2022/01/23 06:37:46;;;;;;;;;;;;;;;;;;5083941;28;19962;-78
2022/01/23 06:40:12;;;;;;;;;;;;;;;;;;5079297;28;20016;-83
2022/01/23 06:42:38;;;;;;;;;;;;;;;;;;5079122;28;19950;-78
2022/01/23 06:45:04;;;;;;;;;;;;;;;;;;5081219;28;19971;-78
2022/01/23 06:47:30;;;;;;;;;;;;;;;;;;5067037;28;19963;-77
2022/01/23 06:49:57;;;;;;;;;;;;;;;;;;5088645;28;20036;-77
2022/01/23 06:52:24;;;;;;;;;;;;;;;;;;5089139;28;19939;-78
2022/01/23 06:54:50;;;;;;;;;;;;;;;;;;5082737;28;19975;-78
2022/01/23 06:57:16;;;;;;;;;;;;;;;;;;5083339;28;19997;-81
2022/01/23 06:59:42;;;;;;;;;;;;;;;;;;5093008;28;19955;-78
2022/01/23 07:02:08;;;;;;;;;;;;;;;;;;5085896;28;21361;-78
2022/01/23 07:04:34;;;;;;;;;;;;;;;;;;5087554;28;20706;-79
2022/01/23 07:07:01;;;;;;;;;;;;;;;;;;5086793;28;19962;-79
2022/01/23 07:09:27;;;;;;;;;;;;;;;;;;5086621;28;20406;-78
2022/01/23 07:11:53;;;;;;;;;;;;;;;;;;5086504;28;20464;-77
2022/01/23 07:14:19;;;;;;;;;;;;;;;;;;5092491;28;19960;-79
2022/01/23 07:16:45;;;;;;;;;;;;;;;;;;5087400;28;20501;-79
2022/01/23 07:19:12;;;;;;;;;;;;;;;;;;5063554;28;19966;-80
2022/01/23 07:21:38;;;;;;;;;;;;;;;;;;5068778;28;20776;-79
2022/01/23 07:24:04;;;;;;;;;;;;;;;;;;5085196;28;19971;-80
2022/01/23 07:26:31;;;;;;;;;;;;;;;;;;5069100;28;19951;-79
2022/01/23 07:29:00;;;;;;;;;;;;;;;;;;5084095;28;19959;-78
2022/01/23 07:34:01;;;;;;;;;;;;;;;;;;5084943;28;19960;-79
2022/01/23 07:36:27;;;;;;;;;;;;;;;;;;5067937;28;19963;-79
2022/01/23 07:38:54;;;;;;;;;;;;;;;;;;5067195;28;20001;-79
2022/01/23 07:41:20;;;;;;;;;;;;;;;;;;5080762;28;20027;-79
2022/01/23 07:43:46;;;;;;;;;;;;;;;;;;5068033;28;20339;-78
2022/01/23 07:46:12;;;;;;;;;;;;;;;;;;5062797;28;19951;-79
2022/01/23 07:48:38;;;;;;;;;;;;;;;;;;5083684;28;20380;-79
2022/01/23 07:51:04;;;;;;;;;;;;;;;;;;5084847;28;19951;-80
2022/01/23 07:53:31;;;;;;;;;;;;;;;;;;5086315;28;19985;-80
2022/01/23 07:55:57;;;;;;;;;;;;;;;;;;5083989;28;20064;-78
2022/01/23 07:58:23;;;;;;;;;;;;;;;;;;5085961;28;19948;-78
2022/01/23 08:00:49;;;;;;;;;;;;;;;;;;5064837;28;19985;-78
2022/01/23 08:03:15;;;;;;;;;;;;;;;;;;5084608;28;19919;-81
2022/01/23 08:05:45;;;;;;;;;;;;;;;;;;5069750;28;19912;-79
2022/01/23 08:08:11;;;;;;;;;;;;;;;;;;5087881;28;20498;-78
2022/01/23 08:10:38;;;;;;;;;;;;;;;;;;5082809;28;20001;-78
2022/01/23 08:13:05;;;;;;;;;;;;;;;;;;5085026;28;20333;-79
2022/01/23 08:15:31;;;;;;;;;;;;;;;;;;5085880;28;20295;-79
2022/01/23 08:17:57;;;;;;;;;;;;;;;;;;5063727;28;19955;-80
2022/01/23 08:20:23;;;;;;;;;;;;;;;;;;5084361;28;20405;-79
2022/01/23 08:22:50;;;;;;;;;;;;;;;;;;5082119;28;20619;-78
2022/01/23 08:25:16;;;;;;;;;;;;;;;;;;5084882;28;19951;-80
2022/01/23 08:27:42;;;;;;;;;;;;;;;;;;5063961;28;19963;-80
2022/01/23 08:30:09;;;;;;;;;;;;;;;;;;5083708;28;19963;-80
2022/01/23 08:32:35;;;;;;;;;;;;;;;;;;5081421;28;19952;-79
2022/01/23 08:35:01;;;;;;;;;;;;;;;;;;5084756;28;19956;-79
2022/01/23 08:37:27;;;;;;;;;;;;;;;;;;5085067;28;19963;-79
2022/01/23 08:39:54;;;;;;;;;;;;;;;;;;5081121;28;19955;-79
2022/01/23 08:42:20;;;;;;;;;;;;;;;;;;5083898;28;19987;-79
2022/01/23 08:44:47;;;;;;;;;;;;;;;;;;5083375;28;19951;-79
2022/01/23 08:47:13;;;;;;;;;;;;;;;;;;5083436;28;20360;-79
2022/01/23 08:49:45;;;;;;;;;;;;;;;;;;5082557;28;19912;-79
2022/01/23 08:52:11;;;;;;;;;;;;;;;;;;5083491;28;19993;-74
2022/01/23 08:54:37;;;;;;;;;;;;;;;;;;5085746;28;19965;-82
2022/01/23 08:57:04;;;;;;;;;;;;;;;;;;5067250;28;20048;-80
2022/01/23 08:59:30;;;;;;;;;;;;;;;;;;5083287;28;19947;-79
2022/01/23 09:01:56;;;;;;;;;;;;;;;;;;5084169;28;20372;-80
2022/01/23 09:04:22;;;;;;;;;;;;;;;;;;5066473;28;19974;-80
2022/01/23 09:06:48;;;;;;;;;;;;;;;;;;5082968;28;19963;-83
2022/01/23 09:09:19;;;;;;;;;;;;;;;;;;5065016;28;19952;-80
2022/01/23 09:12:08;;;;;;;;;;;;;;;;;;5049698;28;19928;-78
2022/01/23 09:14:34;;;;;;;;;;;;;;;;;;5084102;28;20104;-80
2022/01/23 09:17:00;;;;;;;;;;;;;;;;;;5082895;28;20409;-79
2022/01/23 09:19:27;;;;;;;;;;;;;;;;;;5084148;28;19966;-79
2022/01/23 09:21:53;;;;;;;;;;;;;;;;;;5055239;28;19943;-80
2022/01/23 09:24:19;;;;;;;;;;;;;;;;;;5083471;28;20012;-80
2022/01/23 09:26:52;;;;;;;;;;;;;;;;;;5083785;28;20612;-81
2022/01/23 09:29:25;;;;;;;;;;;;;;;;;;5084617;28;19963;-79
2022/01/23 09:31:52;;;;;;;;;;;;;;;;;;5060691;28;20407;-81
2022/01/23 09:34:18;;;;;;;;;;;;;;;;;;5083144;28;20443;-80
2022/01/23 09:36:44;;;;;;;;;;;;;;;;;;5085138;28;19963;-79
2022/01/23 09:39:15;;;;;;;;;;;;;;;;;;5064785;28;20449;-80
2022/01/23 09:41:41;;;;;;;;;;;;;;;;;;5085252;28;19951;-80
2022/01/23 09:44:07;;;;;;;;;;;;;;;;;;5081032;28;19958;-79
2022/01/23 09:46:33;;;;;;;;;;;;;;;;;;5064628;28;20018;-80
2022/01/23 09:48:59;;;;;;;;;;;;;;;;;;5087838;28;19963;-81
2022/01/23 09:51:25;;;;;;;;;;;;;;;;;;5083726;28;19948;-80
2022/01/23 09:53:52;;;;;;;;;;;;;;;;;;5067879;28;19956;-80
2022/01/23 09:56:24;;;;;;;;;;;;;;;;;;5082912;28;20718;-81
2022/01/23 09:58:50;;;;;;;;;;;;;;;;;;5084130;28;19955;-81
2022/01/23 10:01:16;;;;;;;;;;;;;;;;;;5083429;28;19947;-81
2022/01/23 10:03:43;;;;;;;;;;;;;;;;;;5062750;28;19954;-81
2022/01/23 10:06:09;;;;;;;;;;;;;;;;;;5084673;28;20470;-81
2022/01/23 10:08:35;;;;;;;;;;;;;;;;;;5085058;28;19960;-81
2022/01/23 10:11:05;;;;;;;;;;;;;;;;;;5081064;28;20328;-81
2022/01/23 10:13:31;;;;;;;;;;;;;;;;;;5081513;28;19982;-80
2022/01/23 10:15:57;;;;;;;;;;;;;;;;;;5062865;28;20635;-80
2022/01/23 10:18:23;;;;;;;;;;;;;;;;;;5086088;28;19959;-80
2022/01/23 10:20:50;;;;;;;;;;;;;;;;;;5082977;28;19920;-79
2022/01/23 10:23:16;;;;;;;;;;;;;;;;;;5087284;28;19955;-81
2022/01/23 10:25:42;;;;;;;;;;;;;;;;;;5088318;28;19959;-82
2022/01/23 10:28:08;;;;;;;;;;;;;;;;;;5085613;28;19956;-82
2022/01/23 10:30:35;;;;;;;;;;;;;;;;;;5086165;28;19985;-81
2022/01/23 10:33:03;;;;;;;;;;;;;;;;;;5085133;28;20022;-81
2022/01/23 10:35:29;;;;;;;;;;;;;;;;;;5087826;28;20016;-81
2022/01/23 10:37:56;;;;;;;;;;;;;;;;;;5087030;28;19970;-78
2022/01/23 10:40:23;;;;;;;;;;;;;;;;;;5089468;28;19947;-80
2022/01/23 10:42:57;;;;;;;;;;;;;;;;;;5089746;28;19955;-79
2022/01/23 10:50:40;;;;;;;;;;;;;;;;;;5087310;28;20004;-81
2022/01/23 10:53:06;;;;;;;;;;;;;;;;;;5084193;28;20440;-81
2022/01/23 10:55:32;;;;;;;;;;;;;;;;;;5087968;28;19964;-81
2022/01/23 10:58:01;;;;;;;;;;;;;;;;;;5084817;28;19974;-85
2022/01/23 11:00:27;;;;;;;;;;;;;;;;;;5054207;28;20387;-80
2022/01/23 11:02:53;;;;;;;;;;;;;;;;;;5086127;28;20095;-81
2022/01/23 11:05:21;;;;;;;;;;;;;;;;;;5083203;28;19952;-81
2022/01/23 11:07:47;;;;;;;;;;;;;;;;;;5089495;28;19956;-80
2022/01/23 11:10:14;;;;;;;;;;;;;;;;;;5084320;28;19952;-82
2022/01/23 11:18:03;;;;;;;;;;;;;;;;;;5047856;28;19952;-81
2022/01/23 11:20:29;;;;;;;;;;;;;;;;;;5046581;28;19960;-82
2022/01/23 11:22:55;;;;;;;;;;;;;;;;;;5047089;28;20461;-81
2022/01/23 11:25:21;;;;;;;;;;;;;;;;;;5046620;28;19956;-80
2022/01/23 11:27:48;;;;;;;;;;;;;;;;;;5046396;28;19956;-79
2022/01/23 11:30:14;;;;;;;;;;;;;;;;;;5045233;28;19956;-80
2022/01/23 11:32:40;;;;;;;;;;;;;;;;;;5042237;28;19968;-79
2022/01/23 11:35:09;;;;;;;;;;;;;;;;;;5043180;28;19968;-80
2022/01/23 11:37:35;;;;;;;;;;;;;;;;;;5046657;28;20388;-82
2022/01/23 11:40:10;;;;;;;;;;;;;;;;;;5046486;28;20018;-82
2022/01/23 11:56:02;;;;;;;;;;;;;;;;;;5044013;28;19960;-81
2022/01/23 11:58:29;;;;;;;;;;;;;;;;;;5051809;28;19944;-82
2022/01/23 12:00:55;;;;;;;;;;;;;;;;;;5044061;28;19956;-82
2022/01/23 12:03:21;;;;;;;;;;;;;;;;;;5045057;28;19960;-82
2022/01/23 12:05:47;;;;;;;;;;;;;;;;;;5045691;28;20427;-81
2022/01/23 12:08:14;;;;;;;;;;;;;;;;;;5046855;28;19959;-82
2022/01/23 12:10:53;;;;;;;;;;;;;;;;;;5046597;28;19952;-82
2022/01/23 12:16:22;;;;;;;;;;;;;;;;;;5046794;28;22338;-82
2022/01/23 12:16:33;;;;;;;;;;;;;;;;;;5051652;28;20404;-82
2022/01/23 12:18:59;;;;;;;;;;;;;;;;;;5086338;28;20001;-82
2022/01/23 12:21:25;;;;;;;;;;;;;;;;;;5090111;28;19963;-82
2022/01/23 12:23:51;;;;;;;;;;;;;;;;;;5070243;28;20423;-81
2022/01/23 12:26:17;;;;;;;;;;;;;;;;;;5061089;28;19956;-84
2022/01/23 12:28:44;;;;;;;;;;;;;;;;;;5085126;28;19952;-83
2022/01/23 12:31:10;;;;;;;;;;;;;;;;;;5066058;28;19951;-80
2022/01/23 12:33:36;;;;;;;;;;;;;;;;;;5073295;28;19960;-81
2022/01/23 12:36:03;;;;;;;;;;;;;;;;;;5084180;28;19947;-81
2022/01/23 12:38:29;;;;;;;;;;;;;;;;;;5085286;28;19962;-82
2022/01/23 12:40:55;;;;;;;;;;;;;;;;;;5084468;28;20379;-82
2022/01/23 12:43:21;;;;;;;;;;;;;;;;;;5067616;28;20222;-83
2022/01/23 12:45:48;;;;;;;;;;;;;;;;;;5063542;28;19955;-81
2022/01/23 12:48:14;;;;;;;;;;;;;;;;;;5084396;28;19951;-82
2022/01/23 12:50:40;;;;;;;;;;;;;;;;;;5086959;28;19958;-83
2022/01/23 12:53:06;;;;;;;;;;;;;;;;;;5083149;28;20406;-82
2022/01/23 12:55:32;;;;;;;;;;;;;;;;;;5084315;28;19917;-82
2022/01/23 12:57:59;;;;;;;;;;;;;;;;;;5082329;28;20458;-82
2022/01/23 13:00:26;;;;;;;;;;;;;;;;;;5085318;28;19978;-82
2022/01/23 13:02:53;;;;;;;;;;;;;;;;;;5079218;28;19959;-81
2022/01/23 13:05:19;;;;;;;;;;;;;;;;;;5087787;28;20697;-82
2022/01/23 13:10:38;;;;;;;;;;;;;;;;;;5084638;28;19955;-80
2022/01/23 13:13:15;;;;;;;;;;;;;;;;;;5060504;28;19920;-80
2022/01/23 13:16:14;;;;;;;;;;;;;;;;;;5082816;28;19955;-79
2022/01/23 13:19:19;;;;;;;;;;;;;;;;;;5082577;28;20341;-79
2022/01/23 13:27:55;;;;;;;;;;;;;;;;;;5012286;28;20054;-73
2022/01/23 13:30:32;;;;;;;;;;;;;;;;;;5086589;28;19997;-74
2022/01/23 13:32:56;;;;;;;;;;;;;;;;;;5081073;28;19921;-73
2022/01/23 13:35:26;;;;;;;;;;;;;;;;;;5083262;28;19982;-73
2022/01/23 13:37:57;;;;;;;;;;;;;;;;;;5082941;28;20376;-74
2022/01/23 13:40:24;;;;;;;;;;;;;;;;;;5084377;28;19947;-73
2022/01/23 13:47:57;;;;;;;;;;;;;;;;;;5082581;28;20016;-74
2022/01/23 13:59:11;;;;;;;;;;;;;;;;;;5059564;28;20005;-73
2022/01/23 14:01:52;;;;;;;;;;;;;;;;;;5088303;28;19948;-74
2022/01/23 14:04:18;;;;;;;;;;;;;;;;;;5060566;28;21465;-73
2022/01/23 14:06:44;;;;;;;;;;;;;;;;;;5056915;28;20352;-74
2022/01/23 14:09:11;;;;;;;;;;;;;;;;;;5081369;28;19952;-74
2022/01/23 14:11:37;;;;;;;;;;;;;;;;;;5067081;28;19951;-74
2022/01/23 14:14:04;;;;;;;;;;;;;;;;;;5077606;28;20403;-74
2022/01/23 14:16:30;;;;;;;;;;;;;;;;;;5067668;28;19942;-73
2022/01/23 14:18:56;;;;;;;;;;;;;;;;;;5064727;28;20372;-74
2022/01/23 14:21:24;;;;;;;;;;;;;;;;;;5067737;28;20009;-74
2022/01/23 14:23:50;;;;;;;;;;;;;;;;;;5066124;28;19960;-74
2022/01/23 14:26:17;;;;;;;;;;;;;;;;;;5066052;28;20376;-74
2022/01/23 14:28:45;;;;;;;;;;;;;;;;;;5066071;28;19960;-74
2022/01/23 14:31:16;;;;;;;;;;;;;;;;;;5065019;28;21419;-74
2022/01/23 14:33:43;;;;;;;;;;;;;;;;;;5063259;28;19968;-75
2022/01/23 14:36:09;;;;;;;;;;;;;;;;;;5082098;28;19943;-74
2022/01/23 14:38:35;;;;;;;;;;;;;;;;;;5084413;28;20061;-74
2022/01/23 14:41:01;;;;;;;;;;;;;;;;;;5089013;28;19970;-73
2022/01/23 14:43:27;;;;;;;;;;;;;;;;;;5077596;28;20914;-73
2022/01/23 14:45:54;;;;;;;;;;;;;;;;;;5059881;28;20027;-75
2022/01/23 14:48:20;;;;;;;;;;;;;;;;;;5070167;28;20322;-76
2022/01/23 14:50:50;;;;;;;;;;;;;;;;;;5069078;28;20390;-75
2022/01/23 14:53:16;;;;;;;;;;;;;;;;;;5085294;28;19958;-74
2022/01/23 14:55:42;;;;;;;;;;;;;;;;;;5068955;28;19952;-74
2022/01/23 14:58:08;;;;;;;;;;;;;;;;;;5084303;28;19947;-73
2022/01/23 15:00:34;;;;;;;;;;;;;;;;;;5066209;28;19962;-73
2022/01/23 15:03:01;;;;;;;;;;;;;;;;;;5046740;28;19960;-74
2022/01/23 15:05:27;;;;;;;;;;;;;;;;;;5073535;28;19955;-75
2022/01/23 15:07:53;;;;;;;;;;;;;;;;;;5080964;28;19963;-75
2022/01/23 15:10:19;;;;;;;;;;;;;;;;;;5086359;28;19962;-74
2022/01/23 15:12:46;;;;;;;;;;;;;;;;;;5087037;28;19963;-75
2022/01/23 15:15:12;;;;;;;;;;;;;;;;;;5085658;28;19973;-74
2022/01/23 15:17:39;;;;;;;;;;;;;;;;;;5086833;28;19971;-75
2022/01/23 15:20:05;;;;;;;;;;;;;;;;;;5082828;28;19952;-75
2022/01/23 15:22:31;;;;;;;;;;;;;;;;;;5070753;28;19944;-74
2022/01/23 15:24:58;;;;;;;;;;;;;;;;;;5064475;28;20447;-75
2022/01/23 15:27:24;;;;;;;;;;;;;;;;;;5085641;28;19935;-75
2022/01/23 15:29:51;;;;;;;;;;;;;;;;;;5083897;28;19952;-75
2022/01/23 15:32:17;;;;;;;;;;;;;;;;;;5084574;28;19963;-73
2022/01/23 15:34:44;;;;;;;;;;;;;;;;;;5063596;28;20017;-74
2022/01/23 15:37:10;;;;;;;;;;;;;;;;;;5082385;28;20484;-76
2022/01/23 15:39:37;;;;;;;;;;;;;;;;;;5083061;28;19955;-75
2022/01/23 15:42:04;;;;;;;;;;;;;;;;;;5079706;28;19962;-75
2022/01/23 15:44:30;;;;;;;;;;;;;;;;;;5085250;28;19956;-74
2022/01/23 15:46:56;;;;;;;;;;;;;;;;;;5085040;28;19948;-73
2022/01/23 15:49:23;;;;;;;;;;;;;;;;;;5084839;28;19967;-74
2022/01/23 15:51:49;;;;;;;;;;;;;;;;;;5084123;28;19954;-74
2022/01/23 15:54:15;;;;;;;;;;;;;;;;;;5083885;28;20340;-72
2022/01/23 15:56:41;;;;;;;;;;;;;;;;;;5081926;28;19955;-73
2022/01/23 15:59:07;;;;;;;;;;;;;;;;;;5084947;28;19951;-73
2022/01/23 16:01:35;;;;;;;;;;;;;;;;;;5058893;28;21596;-74
2022/01/23 16:04:01;;;;;;;;;;;;;;;;;;5082615;28;20376;-73
2022/01/23 16:06:27;;;;;;;;;;;;;;;;;;5082768;28;19963;-73
2022/01/23 16:08:53;;;;;;;;;;;;;;;;;;5083190;28;19951;-74
2022/01/23 16:11:20;;;;;;;;;;;;;;;;;;5084668;28;19969;-73
2022/01/23 16:13:46;;;;;;;;;;;;;;;;;;5083891;28;19970;-73
2022/01/23 16:16:12;;;;;;;;;;;;;;;;;;5080730;28;20577;-73
2022/01/23 16:18:38;;;;;;;;;;;;;;;;;;5085454;28;19974;-73
2022/01/23 16:21:07;;;;;;;;;;;;;;;;;;5083867;28;19956;-73
2022/01/23 16:23:33;;;;;;;;;;;;;;;;;;5066597;28;20670;-73
2022/01/23 16:25:59;;;;;;;;;;;;;;;;;;5081963;28;19962;-73
2022/01/23 16:28:25;;;;;;;;;;;;;;;;;;5086262;28;19966;-73
2022/01/23 16:30:51;;;;;;;;;;;;;;;;;;5083236;28;19955;-73
2022/01/23 16:33:18;;;;;;;;;;;;;;;;;;5082080;28;19931;-73
2022/01/23 16:35:44;;;;;;;;;;;;;;;;;;5090173;28;19960;-73
2022/01/23 16:38:12;;;;;;;;;;;;;;;;;;5084033;28;20383;-73
2022/01/23 16:40:38;;;;;;;;;;;;;;;;;;5084557;28;19963;-73
2022/01/23 16:43:04;;;;;;;;;;;;;;;;;;5065859;28;20758;-73
2022/01/23 16:45:30;;;;;;;;;;;;;;;;;;5086331;28;19960;-73
2022/01/23 16:47:57;;;;;;;;;;;;;;;;;;5079548;28;19956;-73
2022/01/23 16:50:23;;;;;;;;;;;;;;;;;;5078140;28;19946;-73
2022/01/23 16:52:49;;;;;;;;;;;;;;;;;;5081876;28;19956;-74
2022/01/23 16:55:15;;;;;;;;;;;;;;;;;;5081975;28;20438;-73
2022/01/23 16:57:41;;;;;;;;;;;;;;;;;;5083421;28;19916;-73
2022/01/23 17:00:08;;;;;;;;;;;;;;;;;;5083072;28;20391;-73
2022/01/23 17:02:34;;;;;;;;;;;;;;;;;;5086489;28;19963;-73
2022/01/23 17:05:00;;;;;;;;;;;;;;;;;;5083345;28;19958;-74
2022/01/23 17:07:26;;;;;;;;;;;;;;;;;;5085680;28;19940;-74
2022/01/23 17:09:52;;;;;;;;;;;;;;;;;;5084225;28;20348;-74
2022/01/23 17:12:19;;;;;;;;;;;;;;;;;;5080337;28;19912;-74
2022/01/23 17:14:45;;;;;;;;;;;;;;;;;;5081957;28;19959;-73
2022/01/23 17:17:11;;;;;;;;;;;;;;;;;;5063804;28;20379;-72
2022/01/23 17:19:37;;;;;;;;;;;;;;;;;;5081297;28;20426;-72
2022/01/23 17:22:03;;;;;;;;;;;;;;;;;;5092397;28;20040;-72
2022/01/23 17:24:30;;;;;;;;;;;;;;;;;;5084736;28;19968;-72
2022/01/23 17:26:56;;;;;;;;;;;;;;;;;;5083073;28;19940;-73
2022/01/23 17:29:22;;;;;;;;;;;;;;;;;;5083619;28;19970;-74
2022/01/23 17:31:48;;;;;;;;;;;;;;;;;;5059482;28;19955;-73
2022/01/23 17:34:14;;;;;;;;;;;;;;;;;;5084076;28;20654;-73
2022/01/23 17:36:41;;;;;;;;;;;;;;;;;;5084317;28;20617;-73
2022/01/23 17:39:07;;;;;;;;;;;;;;;;;;5077390;28;19965;-73
2022/01/23 17:41:33;;;;;;;;;;;;;;;;;;5084273;28;19967;-74
2022/01/23 17:43:59;;;;;;;;;;;;;;;;;;5083896;28;19948;-74
2022/01/23 17:46:31;;;;;;;;;;;;;;;;;;5082501;28;19952;-73
2022/01/23 17:49:04;;;;;;;;;;;;;;;;;;5082203;28;19955;-74
2022/01/23 17:51:30;;;;;;;;;;;;;;;;;;5081279;28;19975;-74
2022/01/23 17:53:59;;;;;;;;;;;;;;;;;;5082273;28;20344;-73
2022/01/23 17:56:25;;;;;;;;;;;;;;;;;;5084152;28;19970;-74
2022/01/23 17:58:51;;;;;;;;;;;;;;;;;;5082145;28;19963;-74
2022/01/23 18:01:17;;;;;;;;;;;;;;;;;;5043463;28;19916;-74
2022/01/23 18:03:43;;;;;;;;;;;;;;;;;;5062641;28;20440;-72
2022/01/23 18:06:20;;;;;;;;;;;;;;;;;;5083350;28;19970;-73
2022/01/23 18:08:46;;;;;;;;;;;;;;;;;;5082605;28;19952;-73
2022/01/23 18:11:12;;;;;;;;;;;;;;;;;;5082053;28;19975;-74
2022/01/23 18:13:43;;;;;;;;;;;;;;;;;;5082347;28;20028;-73
2022/01/23 18:16:09;;;;;;;;;;;;;;;;;;5062257;28;19967;-73
2022/01/23 18:18:35;;;;;;;;;;;;;;;;;;5082519;28;20407;-73
2022/01/23 18:21:02;;;;;;;;;;;;;;;;;;5081546;28;19948;-76
2022/01/23 18:23:28;;;;;;;;;;;;;;;;;;5081012;28;19944;-74
2022/01/23 18:25:54;;;;;;;;;;;;;;;;;;5078527;28;19951;-74
2022/01/23 18:28:26;;;;;;;;;;;;;;;;;;5082276;28;19955;-73
2022/01/23 18:30:52;;;;;;;;;;;;;;;;;;5081085;28;19923;-75
2022/01/23 18:33:18;;;;;;;;;;;;;;;;;;5080263;28;19924;-73
2022/01/23 18:35:44;;;;;;;;;;;;;;;;;;5084092;28;19955;-74
2022/01/23 18:38:11;;;;;;;;;;;;;;;;;;5083551;28;19971;-74
2022/01/23 18:40:37;;;;;;;;;;;;;;;;;;5087937;28;20415;-74
2022/01/23 18:43:06;;;;;;;;;;;;;;;;;;5084753;28;20339;-74
2022/01/23 18:45:32;;;;;;;;;;;;;;;;;;5088085;28;19962;-74
2022/01/23 18:47:58;;;;;;;;;;;;;;;;;;5082603;28;20445;-74
2022/01/23 18:50:25;;;;;;;;;;;;;;;;;;5085333;28;20001;-74
2022/01/23 18:53:05;;;;;;;;;;;;;;;;;;5083329;28;19975;-74
2022/01/23 18:55:35;;;;;;;;;;;;;;;;;;5083202;28;20033;-74
2022/01/23 18:58:14;;;;;;;;;;;;;;;;;;5087693;28;19947;-74
2022/01/23 19:00:45;;;;;;;;;;;;;;;;;;5069280;28;19955;-82
2022/01/23 19:03:27;;;;;;;;;;;;;;;;;;5051352;28;20001;-85
2022/01/23 19:06:02;;;;;;;;;;;;;;;;;;5082358;28;19963;-81
2022/01/23 19:08:29;;;;;;;;;;;;;;;;;;5086507;28;20554;-79
2022/01/23 19:10:55;;;;;;;;;;;;;;;;;;5083523;28;19959;-79
2022/01/23 19:13:21;;;;;;;;;;;;;;;;;;5070994;28;19927;-81
2022/01/23 19:15:47;;;;;;;;;;;;;;;;;;5087280;28;19970;-77
2022/01/23 19:18:13;;;;;;;;;;;;;;;;;;5088420;28;19977;-82
2022/01/23 19:20:40;;;;;;;;;;;;;;;;;;5087076;28;19973;-82
2022/01/23 19:23:06;;;;;;;;;;;;;;;;;;5081962;28;20020;-81
2022/01/23 19:25:33;;;;;;;;;;;;;;;;;;5085466;28;20541;-81
2022/01/23 19:28:02;;;;;;;;;;;;;;;;;;5085259;28;19954;-82
2022/01/23 19:30:29;;;;;;;;;;;;;;;;;;5084025;28;19966;-81
2022/01/23 19:32:55;;;;;;;;;;;;;;;;;;5084458;28;20002;-83
2022/01/23 19:35:24;;;;;;;;;;;;;;;;;;5087573;28;20008;-81
2022/01/23 19:37:51;;;;;;;;;;;;;;;;;;5084094;28;19966;-78
2022/01/23 19:40:21;;;;;;;;;;;;;;;;;;5086188;28;19948;-82
2022/01/23 19:43:19;;;;;;;;;;;;;;;;;;5066624;28;19967;-78
2022/01/23 19:45:34;;;;;;;;;;;;;;;;;;5065347;28;19971;-78
2022/01/23 19:48:13;;;;;;;;;;;;;;;;;;5085333;28;19960;-79
2022/01/23 19:50:40;;;;;;;;;;;;;;;;;;5055376;28;19927;-78
2022/01/23 19:53:06;;;;;;;;;;;;;;;;;;5081274;28;20407;-78
2022/01/23 19:55:33;;;;;;;;;;;;;;;;;;5085538;28;19978;-78
2022/01/23 19:58:00;;;;;;;;;;;;;;;;;;5086468;28;20005;-78
2022/01/23 20:00:28;;;;;;;;;;;;;;;;;;5086276;28;20047;-78
2022/01/23 20:02:54;;;;;;;;;;;;;;;;;;5062725;28;19977;-77
2022/01/23 20:05:20;;;;;;;;;;;;;;;;;;5083608;28;20006;-78
2022/01/23 20:07:48;;;;;;;;;;;;;;;;;;5085690;28;20392;-79
2022/01/23 20:12:52;;;;;;;;;;;;;;;;;;5084725;28;19952;-79